createdAt,value
2019-01-09T00:02:22.154Z,2.90
2019-01-09T00:04:50.771Z,2.90
2019-01-09T00:07:20.707Z,2.90
2019-01-09T00:09:49.391Z,2.90
2019-01-09T00:12:18.068Z,2.90
2019-01-09T00:14:46.678Z,2.90
2019-01-09T00:17:15.300Z,2.90
2019-01-09T00:19:43.872Z,2.90
2019-01-09T00:22:12.480Z,2.90
2019-01-09T00:24:41.062Z,2.90
2019-01-09T00:27:09.727Z,2.90
2019-01-09T00:29:38.290Z,3.00
2019-01-09T00:32:07.324Z,2.90
2019-01-09T00:34:36.649Z,2.90
2019-01-09T00:37:05.242Z,2.90
2019-01-09T00:39:33.849Z,2.90
2019-01-09T00:42:02.467Z,3.00
2019-01-09T00:44:31.050Z,3.00
2019-01-09T00:47:00.064Z,3.00
2019-01-09T00:49:28.604Z,3.00
2019-01-09T00:51:57.214Z,3.00
2019-01-09T00:54:26.223Z,2.90
2019-01-09T00:56:54.961Z,3.00
2019-01-09T00:59:23.535Z,3.00
2019-01-09T01:02:19.153Z,2.90
2019-01-09T01:04:56.147Z,3.00
2019-01-09T01:07:42.833Z,3.00
2019-01-09T01:10:17.408Z,2.90
2019-01-09T01:13:05.782Z,2.90
2019-01-09T01:16:11.775Z,2.80
2019-01-09T01:18:43.423Z,2.80
2019-01-09T01:21:32.643Z,2.80
2019-01-09T01:24:18.741Z,2.80
2019-01-09T01:26:53.469Z,2.80
2019-01-09T01:29:27.786Z,2.80
2019-01-09T01:32:05.175Z,2.70
2019-01-09T01:34:45.336Z,2.70
2019-01-09T01:37:22.916Z,2.70
2019-01-09T01:40:23.575Z,2.80
2019-01-09T01:43:03.795Z,2.80
2019-01-09T01:45:46.766Z,2.70
2019-01-09T01:48:43.936Z,2.70
2019-01-09T01:51:46.098Z,2.70
2019-01-09T01:54:35.495Z,2.70
2019-01-09T01:57:15.710Z,2.70
2019-01-09T01:59:47.646Z,2.70
2019-01-09T02:02:19.320Z,2.70
2019-01-09T02:04:56.864Z,2.70
2019-01-09T02:07:34.475Z,2.80
2019-01-09T02:10:18.170Z,2.80
2019-01-09T02:12:52.423Z,2.80
2019-01-09T02:15:29.888Z,2.80
2019-01-09T02:18:04.439Z,2.80
2019-01-09T02:20:41.931Z,2.80
2019-01-09T02:23:44.222Z,2.80
2019-01-09T02:26:34.245Z,2.80
2019-01-09T02:29:22.144Z,2.80
2019-01-09T02:32:28.772Z,2.80
2019-01-09T02:34:57.440Z,2.70
2019-01-09T02:37:26.083Z,2.70
2019-01-09T04:40:34.423Z,2.50
2019-01-09T04:43:03.387Z,2.40
2019-01-09T04:45:31.959Z,2.40
2019-01-09T04:48:00.609Z,2.50
2019-01-09T04:50:30.106Z,2.40
2019-01-09T04:52:58.704Z,2.40
2019-01-09T04:55:27.286Z,2.50
2019-01-09T04:57:55.870Z,2.40
2019-01-09T05:00:24.453Z,2.40
2019-01-09T05:02:53.147Z,2.40
2019-01-09T05:05:22.074Z,2.40
2019-01-09T05:07:50.673Z,2.40
2019-01-09T05:10:19.244Z,2.50
2019-01-09T05:12:48.803Z,2.40
2019-01-09T05:15:17.360Z,2.40
2019-01-09T05:17:45.955Z,2.40
2019-01-09T05:20:14.969Z,2.40
2019-01-09T05:22:43.568Z,2.40
2019-01-09T05:25:12.164Z,2.30
2019-01-09T05:27:40.815Z,2.40
2019-01-09T05:30:09.743Z,2.40
2019-01-09T05:32:38.364Z,2.40
2019-01-09T05:35:26.305Z,2.40
2019-01-09T05:37:54.908Z,2.40
2019-01-09T05:40:23.557Z,2.40
2019-01-09T05:42:52.172Z,2.40
2019-01-09T05:45:20.851Z,2.40
2019-01-09T05:47:49.470Z,2.40
2019-01-09T05:50:18.042Z,2.40
2019-01-09T05:52:46.644Z,2.30
2019-01-09T05:55:15.222Z,2.30
2019-01-09T05:57:43.832Z,2.40
2019-01-09T06:00:12.826Z,2.40
2019-01-09T06:02:41.813Z,2.40
2019-01-09T06:05:10.380Z,2.40
2019-01-09T06:07:38.987Z,2.40
2019-01-09T06:10:08.211Z,2.40
2019-01-09T06:12:37.126Z,2.40
2019-01-09T06:15:06.569Z,2.50
2019-01-09T06:17:35.156Z,2.40
2019-01-09T06:20:04.202Z,2.30
2019-01-09T06:22:32.767Z,2.30
2019-01-09T06:25:01.424Z,2.40
2019-01-09T06:27:30.021Z,2.30
2019-01-09T06:29:58.627Z,2.30
2019-01-09T06:32:27.536Z,2.30
2019-01-09T06:34:56.148Z,2.30
2019-01-09T06:37:27.575Z,2.30
2019-01-09T06:39:55.307Z,2.20
2019-01-09T06:42:23.881Z,2.20
2019-01-09T06:44:52.499Z,2.20
2019-01-09T06:47:21.150Z,2.20
2019-01-09T06:49:49.768Z,2.20
2019-01-09T06:52:18.340Z,2.10
2019-01-09T06:54:46.991Z,2.10
2019-01-09T06:57:15.974Z,2.10
2019-01-09T06:59:44.587Z,2.10
2019-01-09T07:02:13.146Z,2.10
2019-01-09T07:04:41.742Z,2.10
2019-01-09T07:07:10.316Z,2.10
2019-01-09T07:09:41.445Z,2.10
2019-01-09T07:12:10.079Z,2.10
2019-01-09T07:14:38.677Z,2.10
2019-01-09T07:17:07.240Z,2.10
2019-01-09T07:19:35.831Z,2.10
2019-01-09T07:22:04.473Z,2.10
2019-01-09T07:24:33.040Z,2.10
2019-01-09T07:27:01.602Z,2.10
2019-01-09T07:29:30.217Z,2.10
2019-01-09T07:31:58.757Z,2.20
2019-01-09T07:34:27.355Z,2.10
2019-01-09T07:36:55.922Z,2.20
2019-01-09T07:39:24.512Z,2.10
2019-01-09T07:41:53.073Z,2.10
2019-01-09T07:44:21.698Z,2.00
2019-01-09T07:46:50.268Z,2.00
2019-01-09T07:49:18.866Z,2.00
2019-01-09T07:51:47.507Z,2.00
2019-01-09T07:54:16.123Z,2.00
2019-01-09T07:56:44.690Z,1.90
2019-01-09T07:59:13.631Z,1.90
2019-01-09T08:01:42.284Z,2.00
2019-01-09T08:04:10.898Z,2.00
2019-01-09T08:06:39.461Z,2.00
2019-01-09T08:09:08.142Z,2.00
2019-01-09T08:11:36.734Z,2.00
2019-01-09T08:14:05.289Z,2.00
2019-01-09T08:16:33.876Z,2.00
2019-01-09T08:19:02.454Z,2.00
2019-01-09T08:21:31.076Z,2.10
2019-01-09T08:23:59.765Z,2.00
2019-01-09T08:26:30.421Z,2.00
2019-01-09T08:28:58.734Z,2.00
2019-01-09T08:31:27.361Z,2.00
2019-01-09T08:33:55.937Z,2.00
2019-01-09T08:36:24.547Z,2.00
2019-01-09T08:38:53.102Z,2.00
2019-01-09T08:41:21.948Z,2.00
2019-01-09T08:43:50.480Z,2.00
2019-01-09T08:46:20.730Z,2.00
2019-01-09T08:48:49.326Z,2.00
2019-01-09T08:51:18.237Z,2.00
2019-01-09T08:53:46.817Z,2.00
2019-01-09T08:56:15.416Z,2.00
2019-01-09T08:58:43.992Z,2.00
2019-01-09T09:01:15.450Z,2.10
2019-01-09T09:03:44.028Z,2.10
2019-01-09T09:06:12.631Z,2.20
2019-01-09T09:08:41.669Z,2.20
2019-01-09T09:11:10.249Z,2.10
2019-01-09T09:13:40.035Z,2.10
2019-01-09T09:16:08.689Z,2.10
2019-01-09T09:18:37.257Z,2.10
2019-01-09T09:21:05.917Z,2.10
2019-01-09T09:23:34.476Z,2.10
2019-01-09T09:26:03.067Z,2.10
2019-01-09T09:28:31.666Z,2.10
2019-01-09T09:31:00.277Z,2.10
2019-01-09T09:33:28.905Z,2.10
2019-01-09T09:35:57.572Z,2.10
2019-01-09T09:38:26.090Z,2.10
2019-01-09T09:40:54.680Z,2.10
2019-01-09T09:43:23.777Z,2.10
2019-01-09T09:45:52.517Z,2.10
2019-01-09T09:48:21.072Z,2.20
2019-01-09T09:50:50.036Z,2.20
2019-01-09T09:53:18.634Z,2.20
2019-01-09T09:55:47.258Z,2.20
2019-01-09T09:58:15.817Z,2.20
2019-01-09T10:00:44.424Z,2.20
2019-01-09T10:03:12.999Z,2.30
2019-01-09T10:05:41.582Z,2.30
2019-01-09T10:08:10.260Z,2.30
2019-01-09T10:10:39.363Z,2.30
2019-01-09T10:13:08.219Z,2.40
2019-01-09T10:15:36.824Z,2.30
2019-01-09T10:18:05.410Z,2.30
2019-01-09T10:20:34.054Z,2.40
2019-01-09T10:23:02.636Z,2.40
2019-01-09T10:25:31.196Z,2.40
2019-01-09T10:27:59.790Z,2.40
2019-01-09T10:30:28.360Z,2.50
2019-01-09T10:32:57.015Z,2.50
2019-01-09T10:35:25.596Z,2.40
2019-01-09T10:37:54.198Z,2.50
2019-01-09T10:40:22.769Z,2.50
2019-01-09T10:42:51.349Z,2.50
2019-01-09T10:45:21.283Z,2.50
2019-01-09T10:47:49.943Z,2.50
2019-01-09T10:50:18.858Z,2.50
2019-01-09T10:52:47.595Z,2.60
2019-01-09T10:55:18.002Z,2.60
2019-01-09T10:57:46.776Z,2.60
2019-01-09T11:00:21.446Z,2.50
2019-01-09T11:02:50.737Z,2.60
2019-01-09T11:05:19.377Z,2.70
2019-01-09T11:07:47.971Z,2.70
2019-01-09T11:10:18.589Z,2.70
2019-01-09T11:12:47.162Z,2.70
2019-01-09T11:15:15.865Z,2.70
2019-01-09T11:17:48.861Z,2.80
2019-01-09T11:20:19.447Z,2.80
2019-01-09T11:22:48.119Z,2.90
2019-01-09T11:25:19.500Z,2.80
2019-01-09T11:27:48.202Z,2.80
2019-01-09T11:30:18.065Z,2.80
2019-01-09T11:32:46.653Z,2.80
2019-01-09T11:35:17.654Z,2.80
2019-01-09T11:37:46.239Z,2.80
2019-01-09T11:40:16.937Z,2.80
2019-01-09T11:42:45.526Z,2.80
2019-01-09T11:45:16.540Z,2.70
2019-01-09T11:47:45.208Z,2.80
2019-01-09T11:50:15.237Z,2.80
2019-01-09T11:52:43.906Z,2.80
2019-01-09T11:55:13.786Z,2.70
2019-01-09T11:57:42.455Z,2.70
2019-01-09T12:00:16.908Z,2.70
2019-01-09T12:02:45.590Z,2.70
2019-01-09T12:05:14.226Z,2.70
2019-01-09T12:07:42.883Z,2.70
2019-01-09T12:10:29.477Z,2.70
2019-01-09T12:12:50.874Z,2.70
2019-01-09T12:15:19.767Z,2.70
2019-01-09T12:17:48.451Z,2.70
2019-01-09T12:20:18.942Z,2.70
2019-01-09T12:22:48.022Z,2.70
2019-01-09T12:25:16.935Z,2.70
2019-01-09T12:27:45.563Z,2.80
2019-01-09T12:30:25.532Z,2.80
2019-01-09T12:32:54.122Z,2.80
2019-01-09T12:35:22.768Z,2.80
2019-01-09T12:37:51.496Z,2.80
2019-01-09T12:40:20.582Z,2.80
2019-01-09T12:42:49.169Z,2.80
2019-01-09T12:45:18.353Z,2.80
2019-01-09T12:47:46.994Z,2.80
2019-01-09T12:50:21.138Z,2.80
2019-01-09T12:52:49.724Z,2.80
2019-01-09T12:55:18.287Z,2.80
2019-01-09T12:57:46.875Z,2.70
2019-01-09T13:00:23.669Z,2.80
2019-01-09T13:02:52.518Z,2.80
2019-01-09T13:05:21.081Z,2.80
2019-01-09T13:07:49.708Z,2.90
2019-01-09T13:10:18.286Z,2.90
2019-01-09T13:12:46.850Z,2.90
2019-01-09T13:15:15.495Z,2.90
2019-01-09T13:17:44.081Z,2.80
2019-01-09T13:20:17.144Z,2.90
2019-01-09T13:22:45.768Z,2.80
2019-01-09T13:25:15.201Z,2.80
2019-01-09T13:27:44.408Z,2.80
2019-01-09T13:30:15.753Z,2.80
2019-01-09T13:32:44.334Z,2.80
2019-01-09T13:35:12.992Z,2.90
2019-01-09T13:37:41.544Z,2.90
2019-01-09T13:40:15.370Z,2.90
2019-01-09T13:42:44.487Z,2.90
2019-01-09T13:45:15.946Z,2.90
2019-01-09T13:47:44.700Z,2.90
2019-01-09T13:50:20.288Z,2.90
2019-01-09T13:52:48.914Z,2.90
2019-01-09T13:55:17.790Z,2.90
2019-01-09T13:57:46.362Z,2.90
2019-01-09T14:00:17.682Z,2.90
2019-01-09T14:02:46.335Z,2.80
2019-01-09T14:05:15.230Z,2.80
2019-01-09T14:07:43.927Z,2.90
2019-01-09T14:10:21.012Z,2.80
2019-01-09T14:12:49.572Z,2.90
2019-01-09T14:15:20.185Z,2.90
2019-01-09T14:17:48.762Z,2.90
2019-01-09T14:20:17.339Z,2.90
2019-01-09T14:22:47.557Z,2.90
2019-01-09T14:25:17.087Z,2.90
2019-01-09T14:27:46.061Z,2.90
2019-01-09T14:30:26.088Z,2.80
2019-01-09T14:32:54.735Z,2.90
2019-01-09T14:35:23.447Z,2.90
2019-01-09T14:37:51.968Z,2.90
2019-01-09T14:40:21.293Z,2.90
2019-01-09T14:42:49.918Z,2.90
2019-01-09T14:45:18.881Z,2.90
2019-01-09T14:47:47.625Z,2.90
2019-01-09T14:50:24.063Z,2.80
2019-01-09T14:52:52.803Z,2.90
2019-01-09T14:55:21.853Z,2.80
2019-01-09T14:57:50.671Z,2.70
2019-01-09T15:00:24.640Z,2.80
2019-01-09T15:02:54.250Z,2.70
2019-01-09T15:05:23.360Z,2.80
2019-01-09T15:07:52.322Z,2.80
2019-01-09T15:10:25.943Z,2.80
2019-01-09T15:12:55.176Z,2.70
2019-01-09T15:15:23.796Z,2.70
2019-01-09T15:17:52.702Z,2.70
2019-01-09T15:20:21.962Z,2.70
2019-01-09T15:22:50.771Z,2.70
2019-01-09T15:25:19.679Z,2.60
2019-01-09T15:27:48.932Z,2.60
2019-01-09T15:30:26.391Z,2.60
2019-01-09T15:32:55.037Z,2.60
2019-01-09T15:35:23.682Z,2.60
2019-01-09T15:37:52.450Z,2.60
2019-01-09T15:40:25.970Z,2.60
2019-01-09T15:42:54.613Z,2.60
2019-01-09T15:45:23.203Z,2.60
2019-01-09T15:47:51.861Z,2.60
2019-01-09T15:50:22.592Z,2.50
2019-01-09T15:52:51.284Z,2.50
2019-01-09T15:55:19.937Z,2.50
2019-01-09T15:57:50.825Z,2.50
2019-01-09T16:00:25.064Z,2.50
2019-01-09T16:02:53.626Z,2.50
2019-01-09T16:05:22.484Z,2.60
2019-01-09T16:07:51.058Z,2.60
2019-01-09T16:10:24.487Z,2.50
2019-01-09T16:12:53.080Z,2.50
2019-01-09T16:15:22.629Z,2.50
2019-01-09T16:17:57.397Z,2.50
2019-01-09T16:20:25.992Z,2.50
2019-01-09T16:22:54.556Z,2.50
2019-01-09T16:25:23.295Z,2.40
2019-01-09T16:27:51.838Z,2.50
2019-01-09T16:30:33.946Z,2.40
2019-01-09T16:32:59.373Z,2.40
2019-01-09T16:35:30.626Z,2.40
2019-01-09T16:37:59.194Z,2.40
2019-01-09T16:40:27.820Z,2.30
2019-01-09T16:42:56.429Z,2.30
2019-01-09T16:45:25.000Z,2.30
2019-01-09T16:47:53.603Z,2.30
2019-01-09T16:50:23.656Z,2.30
2019-01-09T16:52:52.367Z,2.30
2019-01-09T16:55:20.969Z,2.40
2019-01-09T16:57:49.558Z,2.40
2019-01-09T17:00:33.215Z,2.30
2019-01-09T17:03:01.817Z,2.30
2019-01-09T17:05:30.401Z,2.30
2019-01-09T17:07:59.201Z,2.40
2019-01-09T17:10:32.620Z,2.40
2019-01-09T17:12:58.062Z,2.40
2019-01-09T17:15:26.658Z,2.40
2019-01-09T17:17:55.258Z,2.40
2019-01-09T17:20:31.707Z,2.30
2019-01-09T17:23:00.469Z,2.30
2019-01-09T17:25:29.043Z,2.40
2019-01-09T17:27:57.651Z,2.30
2019-01-09T17:30:28.641Z,2.30
2019-01-09T17:32:57.371Z,2.30
2019-01-09T17:35:26.207Z,2.30
2019-01-09T17:37:54.982Z,2.30
2019-01-09T17:40:24.810Z,2.30
2019-01-09T17:42:54.101Z,2.30
2019-01-09T17:45:22.830Z,2.30
2019-01-09T17:47:51.480Z,2.20
2019-01-09T17:50:23.173Z,2.20
2019-01-09T17:52:51.820Z,2.20
2019-01-09T17:55:20.431Z,2.20
2019-01-09T17:57:49.012Z,2.20
2019-01-09T18:00:23.344Z,2.30
2019-01-09T18:02:51.960Z,2.30
2019-01-09T18:05:21.417Z,2.30
2019-01-09T18:07:52.135Z,2.30
2019-01-09T18:10:22.658Z,2.30
2019-01-09T18:12:51.561Z,2.30
2019-01-09T18:15:21.773Z,2.40
2019-01-09T18:17:50.710Z,2.30
2019-01-09T18:20:23.574Z,2.40
2019-01-09T18:22:52.299Z,2.30
2019-01-09T18:25:26.101Z,2.30
2019-01-09T18:27:54.702Z,2.30
2019-01-09T18:30:38.010Z,2.30
2019-01-09T18:33:24.753Z,2.30
2019-01-09T18:36:15.984Z,2.30
2019-01-09T18:39:08.982Z,2.30
2019-01-09T18:41:43.746Z,2.40
2019-01-09T18:44:27.316Z,2.40
2019-01-09T18:47:18.246Z,2.40
2019-01-09T18:50:18.129Z,2.40
2019-01-09T18:52:55.586Z,2.40
2019-01-09T18:55:24.190Z,2.40
2019-01-09T18:57:52.807Z,2.40
2019-01-09T19:00:23.052Z,2.40
2019-01-09T19:02:51.752Z,2.40
2019-01-09T19:05:20.514Z,2.40
2019-01-09T19:07:49.322Z,2.40
2019-01-09T19:10:22.776Z,2.40
2019-01-09T19:12:51.446Z,2.50
2019-01-09T19:15:20.029Z,2.50
2019-01-09T19:17:48.600Z,2.50
2019-01-09T19:20:17.529Z,2.50
2019-01-09T19:22:46.152Z,2.60
2019-01-09T19:25:16.657Z,2.60
2019-01-09T19:27:45.370Z,2.60
2019-01-09T19:30:25.485Z,2.60
2019-01-09T19:32:54.218Z,2.60
2019-01-09T19:35:23.101Z,2.60
2019-01-09T19:37:51.726Z,2.60
2019-01-09T19:40:20.331Z,2.70
2019-01-09T19:42:48.912Z,2.70
2019-01-09T19:45:17.633Z,2.70
2019-01-09T19:47:46.402Z,2.70
2019-01-09T19:50:21.145Z,2.70
2019-01-09T19:52:50.167Z,2.80
2019-01-09T19:55:18.861Z,2.80
2019-01-09T19:57:47.639Z,2.80
2019-01-09T20:00:19.260Z,2.80
2019-01-09T20:02:48.080Z,2.80
2019-01-09T20:05:17.019Z,2.90
2019-01-09T20:07:46.274Z,2.80
2019-01-09T20:10:18.252Z,2.90
2019-01-09T20:12:46.909Z,2.90
2019-01-09T20:15:17.330Z,2.90
2019-01-09T20:17:46.055Z,3.00
2019-01-09T20:20:19.684Z,3.00
2019-01-09T20:22:49.414Z,3.00
2019-01-09T20:25:18.038Z,3.00
2019-01-09T20:27:46.832Z,3.00
2019-01-09T20:30:23.982Z,3.00
2019-01-09T20:32:52.618Z,3.00
2019-01-09T20:35:21.448Z,3.00
2019-01-09T20:37:50.312Z,3.00
2019-01-09T20:40:18.960Z,3.00
2019-01-09T20:42:47.490Z,2.90
2019-01-09T20:45:18.274Z,2.90
2019-01-09T20:47:46.967Z,3.00
2019-01-09T20:50:23.686Z,3.00
2019-01-09T20:52:52.584Z,2.90
2019-01-09T20:55:21.362Z,2.90
2019-01-09T20:57:50.287Z,2.90
2019-01-09T21:00:27.272Z,2.90
2019-01-09T21:02:57.969Z,2.90
2019-01-09T21:05:37.895Z,3.00
2019-01-09T21:08:07.231Z,3.00
2019-01-09T21:10:35.771Z,3.00
2019-01-09T21:13:04.996Z,3.00
2019-01-09T21:15:35.403Z,3.00
2019-01-09T21:18:04.080Z,3.00
2019-01-09T21:20:34.266Z,3.00
2019-01-09T21:23:07.666Z,3.00
2019-01-09T21:25:36.241Z,3.10
2019-01-09T21:28:05.855Z,3.00
2019-01-09T21:30:34.477Z,3.10
2019-01-09T21:33:03.088Z,3.10
2019-01-09T21:35:31.669Z,3.00
2019-01-09T21:38:00.468Z,3.10
2019-01-09T21:40:29.934Z,3.00
2019-01-09T21:42:58.576Z,3.00
2019-01-09T21:45:27.378Z,3.00
2019-01-09T21:47:56.485Z,3.00
2019-01-09T21:50:25.986Z,3.00
2019-01-09T21:52:54.590Z,3.00
2019-01-09T21:55:23.207Z,3.00
2019-01-09T21:57:51.827Z,2.90
2019-01-09T22:00:27.441Z,2.90
2019-01-09T22:02:56.030Z,2.90
2019-01-09T22:05:25.148Z,2.80
2019-01-09T22:07:53.889Z,2.80
2019-01-09T22:10:25.209Z,2.80
2019-01-09T22:12:53.851Z,2.80
2019-01-09T22:15:22.953Z,2.80
2019-01-09T22:17:51.520Z,2.80
2019-01-09T22:20:20.245Z,2.70
2019-01-09T22:22:48.810Z,2.70
2019-01-09T22:25:17.456Z,2.70
2019-01-09T22:27:46.015Z,2.70
2019-01-09T22:30:20.422Z,2.70
2019-01-09T22:32:49.051Z,2.70
2019-01-09T22:35:17.890Z,2.70
2019-01-09T22:37:46.534Z,2.70
2019-01-09T22:40:17.758Z,2.60
2019-01-09T22:42:46.422Z,2.70
2019-01-09T22:45:16.235Z,2.70
2019-01-09T22:47:44.876Z,2.70
2019-01-09T22:50:16.543Z,2.70
2019-01-09T22:52:45.176Z,2.60
2019-01-09T22:55:13.760Z,2.60
2019-01-09T22:57:42.331Z,2.70
2019-01-09T23:00:38.745Z,2.60
2019-01-09T23:03:10.052Z,2.60
2019-01-09T23:05:38.862Z,2.50
2019-01-09T23:08:07.502Z,2.50
2019-01-09T23:10:36.228Z,2.50
2019-01-09T23:13:04.929Z,2.50
2019-01-09T23:15:33.588Z,2.50
2019-01-09T23:18:02.510Z,2.50
2019-01-09T23:20:31.086Z,2.50
2019-01-09T23:22:59.786Z,2.50
2019-01-09T23:25:28.386Z,2.50
2019-01-09T23:27:56.982Z,2.50
2019-01-09T23:30:25.577Z,2.50
2019-01-09T23:32:54.212Z,2.40
2019-01-09T23:35:22.800Z,2.50
2019-01-09T23:37:51.362Z,2.40
2019-01-09T23:40:20.313Z,2.50
2019-01-09T23:42:48.892Z,2.40
2019-01-09T23:45:17.559Z,2.40
2019-01-09T23:47:46.133Z,2.40
2019-01-09T23:50:14.862Z,2.30
2019-01-09T23:52:43.486Z,2.40
2019-01-09T23:55:12.727Z,2.40
2019-01-09T23:57:41.348Z,2.40
